createdAt,value
2017-01-26T00:01:18.479Z,0
2017-01-26T00:11:31.028Z,0
2017-01-26T00:21:43.588Z,0
2017-01-26T00:31:56.095Z,0
2017-01-26T00:42:08.597Z,0
2017-01-26T00:52:21.149Z,0
2017-01-26T01:02:33.807Z,0
2017-01-26T01:12:46.480Z,0
2017-01-26T01:22:59.215Z,0
2017-01-26T01:33:11.971Z,0
2017-01-26T01:43:24.648Z,0
2017-01-26T01:53:37.378Z,0
2017-01-26T02:03:50.143Z,0
2017-01-26T02:14:02.918Z,0
2017-01-26T02:24:15.732Z,0
2017-01-26T02:34:28.560Z,0
2017-01-26T02:44:41.316Z,0
2017-01-26T02:54:54.154Z,0
2017-01-26T03:05:06.931Z,0
2017-01-26T03:15:19.617Z,0
2017-01-26T03:25:32.291Z,0
2017-01-26T03:35:44.937Z,0
2017-01-26T03:45:57.575Z,0
2017-01-26T03:56:10.389Z,0
2017-01-26T04:06:22.940Z,0
2017-01-26T04:16:35.575Z,0
2017-01-26T04:26:48.290Z,0
2017-01-26T04:37:01.020Z,0
2017-01-26T04:47:13.664Z,0
2017-01-26T04:57:26.425Z,0
2017-01-26T05:07:39.168Z,0
2017-01-26T05:17:52.003Z,0
2017-01-26T05:28:04.841Z,0
2017-01-26T05:38:17.758Z,0
2017-01-26T05:48:30.657Z,0
2017-01-26T05:58:43.629Z,0
2017-01-26T06:08:56.272Z,0
2017-01-26T06:19:08.908Z,0
2017-01-26T06:29:21.581Z,0
2017-01-26T06:39:34.263Z,0
2017-01-26T06:49:46.979Z,0
2017-01-26T06:59:59.678Z,0
2017-01-26T07:10:12.402Z,10
2017-01-26T07:20:25.158Z,20
2017-01-26T07:30:37.864Z,50
2017-01-26T07:40:50.492Z,95
2017-01-26T07:51:02.915Z,150
2017-01-26T08:01:15.113Z,225
2017-01-26T08:11:27.133Z,305
2017-01-26T08:21:39.000Z,430
2017-01-26T08:31:50.734Z,705
2017-01-26T08:42:02.231Z,870
2017-01-26T08:52:13.732Z,920
2017-01-26T09:02:25.069Z,1075
2017-01-26T09:12:36.298Z,1190
2017-01-26T09:22:47.437Z,1345
2017-01-26T09:32:58.603Z,1440
2017-01-26T09:43:09.640Z,1515
2017-01-26T09:53:20.672Z,1570
2017-01-26T10:03:31.672Z,1675
2017-01-26T10:13:42.619Z,1700
2017-01-26T10:23:53.455Z,1795
2017-01-26T10:34:04.354Z,1915
2017-01-26T10:44:14.996Z,1935
2017-01-26T10:54:25.646Z,1945
2017-01-26T11:04:36.270Z,1960
2017-01-26T11:14:46.848Z,1915
2017-01-26T11:24:57.591Z,1960
2017-01-26T11:35:08.399Z,1975
2017-01-26T11:45:19.208Z,1945
2017-01-26T11:55:29.916Z,1925
2017-01-26T12:05:40.649Z,1945
2017-01-26T12:15:51.228Z,1815
2017-01-26T12:26:01.942Z,1855
2017-01-26T12:36:12.601Z,1765
2017-01-26T12:46:23.248Z,1760
2017-01-26T12:56:33.933Z,1610
2017-01-26T13:06:44.620Z,1570
2017-01-26T13:16:55.197Z,1465
2017-01-26T13:27:05.809Z,1470
2017-01-26T13:37:16.387Z,1335
2017-01-26T13:47:26.920Z,1115
2017-01-26T13:57:37.441Z,965
2017-01-26T14:07:47.954Z,830
2017-01-26T14:17:58.433Z,790
2017-01-26T14:28:08.969Z,785
2017-01-26T14:38:19.474Z,835
2017-01-26T14:48:29.989Z,775
2017-01-26T14:58:40.603Z,610
2017-01-26T15:08:51.071Z,505
2017-01-26T15:19:01.745Z,365
2017-01-26T15:29:12.584Z,265
2017-01-26T15:39:23.623Z,175
2017-01-26T15:49:34.628Z,110
2017-01-26T15:59:45.943Z,45
2017-01-26T16:09:57.535Z,15
2017-01-26T16:20:09.284Z,5
2017-01-26T16:30:21.188Z,0
2017-01-26T16:40:33.149Z,0
2017-01-26T16:50:45.193Z,0
2017-01-26T17:00:57.294Z,0
2017-01-26T17:11:09.415Z,0
2017-01-26T17:21:21.503Z,0
2017-01-26T17:31:33.599Z,0
2017-01-26T17:41:45.721Z,0
2017-01-26T17:51:57.863Z,0
2017-01-26T18:02:10.073Z,0
2017-01-26T18:12:22.185Z,0
2017-01-26T18:22:34.328Z,0
2017-01-26T18:32:46.495Z,0
2017-01-26T18:42:58.698Z,0
2017-01-26T18:53:10.970Z,0
2017-01-26T19:03:23.255Z,0
2017-01-26T19:13:35.541Z,0
2017-01-26T19:23:47.886Z,0
2017-01-26T19:34:00.204Z,0
2017-01-26T19:44:12.559Z,0
2017-01-26T19:54:24.897Z,0
2017-01-26T20:04:37.203Z,0
2017-01-26T20:14:49.484Z,0
2017-01-26T20:25:01.824Z,0
2017-01-26T20:35:14.222Z,0
2017-01-26T20:45:26.621Z,0
2017-01-26T20:55:39.021Z,0
2017-01-26T21:05:51.467Z,0
2017-01-26T21:16:03.931Z,0
2017-01-26T21:26:16.298Z,0
2017-01-26T21:36:28.771Z,0
2017-01-26T21:46:41.273Z,0
2017-01-26T21:56:53.768Z,0
2017-01-26T22:07:06.265Z,0
2017-01-26T22:17:18.733Z,0
2017-01-26T22:27:31.240Z,0
2017-01-26T22:37:43.727Z,0
2017-01-26T22:47:56.252Z,0
2017-01-26T22:58:08.806Z,0
2017-01-26T23:08:21.382Z,0
2017-01-26T23:18:33.965Z,0
2017-01-26T23:28:46.551Z,0
2017-01-26T23:38:59.124Z,0
2017-01-26T23:49:11.664Z,0
2017-01-26T23:59:24.181Z,0
